Time;durP1;ratioP1;P1;durP2;ratioP2;P2;SDS_P1;SDS_P2;PMS_P1;PMS_P2;Temp;Humidity;BMP_temperature;BMP_pressure;BME280_temperature;BME280_humidity;BME280_pressure;Samples;Min_cycle;Max_cycle;Signal;HPM_P1;HPM_P2
2021/11/30 00:04:42;;;;;;;77.50;64.75;;;22.20;45.70;;;;;;4765952;55;21825;-31
2021/11/30 00:15:29;;;;;;;77.75;64.95;;;22.20;45.60;;;;;;4751044;55;22013;-32
2021/11/30 00:20:30;;;;;;;78.15;65.05;;;22.20;46.30;;;;;;4783236;55;21045;-34
2021/11/30 00:25:31;;;;;;;74.40;63.25;;;22.20;45.50;;;;;;4739529;55;21050;-30
2021/11/30 00:30:32;;;;;;;72.07;61.85;;;22.20;45.60;;;;;;4751684;55;21026;-29
2021/11/30 00:35:34;;;;;;;70.40;60.60;;;22.20;45.50;;;;;;4757847;55;21148;-31
2021/11/30 00:40:36;;;;;;;72.18;60.05;;;22.30;45.50;;;;;;4795392;55;21097;-30
2021/11/30 00:45:52;;;;;;;71.05;59.67;;;22.20;45.40;;;;;;4741619;55;21555;-29
2021/11/30 00:50:53;;;;;;;71.62;60.33;;;22.20;45.50;;;;;;4756533;55;22008;-28
2021/11/30 00:55:54;;;;;;;68.62;59.75;;;22.20;45.40;;;;;;4756152;55;21048;-29
2021/11/30 01:00:55;;;;;;;67.53;57.97;;;22.20;45.30;;;;;;4767658;55;21021;-29
2021/11/30 01:05:56;;;;;;;70.32;58.83;;;22.20;45.30;;;;;;4741330;55;21013;-35
2021/11/30 01:10:59;;;;;;;66.22;56.72;;;22.20;45.30;;;;;;4746152;55;21132;-26
2021/11/30 01:16:01;;;;;;;67.65;56.22;;;22.20;45.30;;;;;;4782574;55;21049;-29
2021/11/30 01:21:03;;;;;;;65.22;54.75;;;22.20;45.20;;;;;;4755759;55;21126;-31
2021/11/30 01:26:04;;;;;;;64.75;54.53;;;22.20;45.20;;;;;;4782914;55;21013;-28
2021/11/30 01:31:05;;;;;;;63.60;54.33;;;22.20;45.20;;;;;;4739553;55;21010;-27
2021/11/30 01:36:06;;;;;;;65.60;54.72;;;22.20;45.10;;;;;;4738857;59;21096;-28
2021/11/30 01:41:08;;;;;;;65.10;55.00;;;22.20;45.10;;;;;;4824539;55;21582;-26
2021/11/30 01:46:12;;;;;;;61.15;52.90;;;22.20;45.10;;;;;;4750245;55;21480;-31
2021/11/30 01:51:13;;;;;;;60.08;51.92;;;22.20;45.00;;;;;;4738793;59;21618;-30
2021/11/30 01:56:15;;;;;;;61.00;51.58;;;22.20;45.00;;;;;;4748517;55;21009;-22
2021/11/30 02:01:17;;;;;;;59.90;49.92;;;22.20;45.00;;;;;;4744471;55;21090;-28
2021/11/30 02:06:18;;;;;;;59.38;50.30;;;22.20;45.00;;;;;;4814070;55;21073;-28
2021/11/30 02:11:19;;;;;;;58.90;49.50;;;22.20;44.90;;;;;;4741872;55;21093;-28
2021/11/30 02:16:21;;;;;;;57.03;49.33;;;22.20;44.90;;;;;;4743459;55;21029;-29
2021/11/30 02:21:24;;;;;;;56.42;48.63;;;22.20;44.80;;;;;;4742354;55;21476;-30
2021/11/30 02:26:26;;;;;;;55.55;48.30;;;22.20;44.80;;;;;;4758396;55;21124;-29
2021/11/30 02:31:33;;;;;;;55.95;47.35;;;22.20;44.80;;;;;;4754747;55;21093;-29
2021/11/30 02:42:11;;;;;;;53.75;46.10;;;22.20;44.70;;;;;;4768990;55;21575;-27
2021/11/30 02:47:14;;;;;;;54.85;45.95;;;22.20;44.70;;;;;;4768692;55;21480;-28
2021/11/30 02:52:20;;;;;;;53.20;44.92;;;22.20;44.70;;;;;;4828230;55;21516;-30
2021/11/30 02:57:23;;;;;;;51.35;44.10;;;22.20;44.60;;;;;;4758859;55;21580;-22
2021/11/30 03:02:29;;;;;;;50.97;44.05;;;22.20;44.60;;;;;;4785355;55;21054;-24
2021/11/30 03:07:39;;;;;;;49.90;43.35;;;22.20;44.60;;;;;;4763817;55;21580;-31
2021/11/30 03:12:44;;;;;;;47.60;42.10;;;22.20;44.50;;;;;;4762307;55;21089;-24
2021/11/30 03:17:45;;;;;;;49.72;42.62;;;22.20;44.40;;;;;;4756349;55;21033;-28
2021/11/30 03:22:47;;;;;;;49.17;42.38;;;22.10;44.40;;;;;;4760056;55;21033;-21
2021/11/30 03:27:49;;;;;;;46.97;41.42;;;22.20;44.40;;;;;;4813719;55;21582;-30
2021/11/30 03:38:10;;;;;;;47.95;41.42;;;22.20;44.50;;;;;;4792988;55;21136;-30
2021/11/30 03:43:11;;;;;;;47.72;40.30;;;22.10;44.30;;;;;;4743724;55;21112;-28
2021/11/30 03:48:12;;;;;;;46.75;39.47;;;22.20;44.30;;;;;;4761727;55;21006;-33
2021/11/30 03:53:13;;;;;;;45.17;38.40;;;22.20;44.30;;;;;;4768259;55;20997;-26
2021/11/30 03:58:14;;;;;;;48.15;39.17;;;22.20;44.20;;;;;;4785864;55;21017;-27
2021/11/30 04:03:15;;;;;;;44.90;38.85;;;22.10;44.20;;;;;;4777371;55;20993;-30
2021/11/30 04:08:15;;;;;;;42.45;37.63;;;22.20;44.20;;;;;;4739383;55;21603;-29
2021/11/30 04:13:16;;;;;;;41.97;36.25;;;22.20;44.20;;;;;;4745495;55;21030;-28
2021/11/30 04:18:17;;;;;;;42.15;36.45;;;22.10;44.10;;;;;;4772379;55;21046;-30
2021/11/30 04:23:18;;;;;;;41.55;37.00;;;22.10;44.00;;;;;;4782265;55;21535;-33
2021/11/30 04:28:19;;;;;;;42.05;36.25;;;22.20;44.10;;;;;;4777470;55;21069;-27
2021/11/30 04:33:20;;;;;;;40.35;34.97;;;22.20;44.00;;;;;;4759157;55;21100;-28
2021/11/30 04:38:21;;;;;;;41.63;36.50;;;22.10;44.00;;;;;;4778122;55;21033;-27
2021/11/30 04:43:22;;;;;;;39.35;34.42;;;22.20;44.00;;;;;;4747283;55;21069;-29
2021/11/30 04:48:24;;;;;;;40.70;34.22;;;22.10;44.00;;;;;;4738470;59;21050;-28
2021/11/30 04:53:27;;;;;;;39.83;34.85;;;22.20;44.00;;;;;;4796581;55;21006;-29
2021/11/30 04:58:28;;;;;;;41.22;35.00;;;22.10;43.90;;;;;;4740355;55;21563;-29
2021/11/30 05:03:29;;;;;;;39.05;34.25;;;22.10;44.00;;;;;;4738963;59;21101;-29
2021/11/30 05:08:30;;;;;;;37.75;33.05;;;22.10;43.90;;;;;;4739593;59;21584;-30
2021/11/30 05:13:31;;;;;;;38.90;33.78;;;22.10;43.90;;;;;;4740132;55;21078;-29
2021/11/30 05:18:32;;;;;;;38.20;32.33;;;22.10;44.00;;;;;;4761079;55;21492;-27
2021/11/30 05:23:35;;;;;;;37.40;31.85;;;22.10;43.80;;;;;;4749235;55;21018;-28
2021/11/30 05:28:39;;;;;;;36.08;31.50;;;22.10;44.00;;;;;;4739783;55;21422;-31
2021/11/30 05:33:40;;;;;;;33.97;30.20;;;22.10;43.90;;;;;;4738902;59;21017;-27
2021/11/30 05:38:41;;;;;;;35.53;30.90;;;22.10;43.90;;;;;;4740894;55;21021;-29
2021/11/30 05:43:42;;;;;;;37.08;30.55;;;22.10;43.90;;;;;;4738824;59;21033;-32
2021/11/30 05:48:42;;;;;;;36.88;30.58;;;22.20;44.00;;;;;;4743414;55;20998;-26
2021/11/30 05:53:43;;;;;;;37.22;30.92;;;22.10;44.00;;;;;;4810282;55;21081;-31
2021/11/30 05:58:45;;;;;;;33.75;30.05;;;22.10;44.00;;;;;;4737704;55;21030;-29
2021/11/30 06:09:08;;;;;;;35.83;30.75;;;22.10;44.10;;;;;;4815090;55;21151;-27
2021/11/30 06:14:09;;;;;;;32.35;28.25;;;22.10;44.00;;;;;;4752193;55;21100;-27
2021/11/30 06:19:13;;;;;;;33.97;29.35;;;22.10;44.00;;;;;;4753837;55;21006;-29
2021/11/30 06:24:14;;;;;;;33.75;29.83;;;22.10;44.00;;;;;;4739322;55;21144;-30
2021/11/30 06:29:16;;;;;;;33.75;28.65;;;22.10;44.00;;;;;;4756073;55;21061;-23
2021/11/30 06:34:17;;;;;;;33.47;28.60;;;22.10;43.90;;;;;;4740397;55;21025;-27
2021/11/30 06:39:17;;;;;;;35.38;29.58;;;22.10;43.80;;;;;;4806629;55;21057;-28
2021/11/30 06:44:18;;;;;;;32.95;28.67;;;22.10;43.80;;;;;;4738781;59;21045;-30
2021/11/30 06:49:19;;;;;;;35.25;29.65;;;22.10;43.80;;;;;;4758276;55;21053;-28
2021/11/30 06:54:20;;;;;;;34.42;29.40;;;22.10;43.90;;;;;;4738578;59;22260;-29
2021/11/30 06:59:21;;;;;;;32.55;28.15;;;22.10;43.60;;;;;;4747095;55;21085;-29
2021/11/30 07:04:23;;;;;;;31.12;27.73;;;22.10;43.70;;;;;;4757038;55;21013;-33
2021/11/30 07:09:48;;;;;;;34.20;29.63;;;22.10;43.70;;;;;;4801049;55;22217;-30
2021/11/30 07:14:49;;;;;;;35.15;29.20;;;22.10;43.60;;;;;;4743981;55;21602;-30
2021/11/30 07:19:50;;;;;;;33.00;29.33;;;22.10;43.70;;;;;;4743553;55;20982;-31
2021/11/30 07:24:51;;;;;;;35.47;29.85;;;22.10;43.60;;;;;;4741013;55;21084;-26
2021/11/30 07:29:52;;;;;;;35.88;30.20;;;22.10;43.60;;;;;;4778806;55;21073;-27
2021/11/30 07:34:53;;;;;;;36.10;30.50;;;22.10;43.60;;;;;;4743677;55;21092;-25
2021/11/30 07:39:54;;;;;;;37.22;31.15;;;22.10;43.50;;;;;;4770156;55;21464;-30
2021/11/30 07:44:54;;;;;;;37.33;32.03;;;22.10;43.60;;;;;;4746722;55;20993;-31
2021/11/30 07:49:55;;;;;;;39.88;31.52;;;22.10;43.50;;;;;;4809079;55;21001;-25
2021/11/30 07:55:03;;;;;;;36.70;30.50;;;22.10;43.50;;;;;;4739183;55;21097;-28
2021/11/30 08:00:11;;;;;;;39.88;33.00;;;22.10;43.50;;;;;;4783311;55;21544;-29
2021/11/30 08:05:13;;;;;;;40.45;32.40;;;22.10;43.50;;;;;;4739911;55;21009;-26
2021/11/30 08:10:17;;;;;;;85.25;64.28;;;22.10;43.40;;;;;;4740754;55;21500;-28
2021/11/30 08:15:18;;;;;;;95.07;73.68;;;22.00;38.60;;;;;;4742871;55;21601;-22
2021/11/30 08:20:19;;;;;;;95.30;72.35;;;21.90;37.80;;;;;;4743829;55;21017;-28
2021/11/30 08:25:20;;;;;;;95.70;74.05;;;21.80;38.10;;;;;;4738897;59;21026;-26
2021/11/30 08:30:21;;;;;;;108.55;78.95;;;21.80;37.60;;;;;;4751867;55;21073;-30
2021/11/30 08:35:21;;;;;;;103.95;80.18;;;21.80;37.20;;;;;;4757974;55;21018;-27
2021/11/30 08:40:22;;;;;;;108.50;81.63;;;21.80;37.80;;;;;;4770583;55;21112;-25
2021/11/30 08:45:23;;;;;;;110.05;84.20;;;21.80;37.50;;;;;;4749677;55;21005;-25
2021/11/30 08:50:25;;;;;;;106.65;83.05;;;21.80;37.70;;;;;;4756670;55;21016;-31
2021/11/30 08:55:26;;;;;;;104.03;79.55;;;21.90;38.10;;;;;;4775070;55;21090;-27
2021/11/30 09:00:28;;;;;;;103.05;78.50;;;21.90;38.40;;;;;;4745901;55;21086;-27
2021/11/30 09:05:29;;;;;;;99.20;77.53;;;21.90;38.50;;;;;;4798030;55;21494;-30
2021/11/30 09:10:30;;;;;;;96.70;75.62;;;22.00;38.60;;;;;;4757875;55;21394;-23
2021/11/30 09:15:32;;;;;;;96.78;77.43;;;22.00;38.70;;;;;;4740495;55;21029;-27
2021/11/30 09:20:33;;;;;;;96.63;74.87;;;22.10;38.80;;;;;;4742865;55;21467;-30
2021/11/30 09:25:34;;;;;;;94.93;75.62;;;22.10;39.10;;;;;;4742934;55;21097;-34
2021/11/30 09:30:35;;;;;;;97.00;77.32;;;22.20;39.30;;;;;;4762890;55;21191;-26
2021/11/30 09:35:36;;;;;;;93.97;71.57;;;22.20;39.80;;;;;;4771040;55;21609;-28
2021/11/30 09:40:39;;;;;;;91.05;72.45;;;22.30;40.10;;;;;;4769843;55;21065;-30
2021/11/30 09:45:40;;;;;;;95.12;72.80;;;22.30;40.30;;;;;;4762067;55;20998;-27
2021/11/30 09:50:44;;;;;;;89.97;70.75;;;22.40;40.70;;;;;;4782017;55;21041;-28
2021/11/30 09:55:47;;;;;;;88.62;70.32;;;22.40;40.90;;;;;;4739406;55;21072;-19
2021/11/30 10:00:51;;;;;;;91.30;72.22;;;22.40;41.00;;;;;;4758040;55;21524;-27
2021/11/30 10:05:54;;;;;;;88.55;70.72;;;22.40;41.30;;;;;;4743776;55;21104;-27
2021/11/30 10:10:55;;;;;;;91.18;73.30;;;22.50;41.50;;;;;;4763889;55;21041;-21
2021/11/30 10:16:09;;;;;;;88.87;70.28;;;22.50;41.60;;;;;;4752736;55;21010;-27
2021/11/30 10:21:31;;;;;;;90.03;71.37;;;22.60;41.80;;;;;;4746640;55;21021;-29
2021/11/30 10:26:41;;;;;;;100.57;78.40;;;22.60;41.80;;;;;;4750875;55;21507;-28
2021/11/30 10:31:45;;;;;;;100.38;79.35;;;22.60;41.90;;;;;;4793479;55;21499;-27
2021/11/30 10:37:17;;;;;;;95.87;76.97;;;22.60;42.00;;;;;;4754844;55;21069;-31
2021/11/30 10:54:37;;;;;;;94.90;76.50;;;22.70;42.50;;;;;;4758904;54;28130;-30
2021/11/30 10:59:38;;;;;;;95.70;75.28;;;22.90;44.00;;;;;;4807071;54;21018;-26
2021/11/30 11:04:39;;;;;;;91.80;76.65;;;22.90;44.20;;;;;;4807521;54;22103;-31
2021/11/30 11:09:47;;;;;;;95.72;78.10;;;22.90;44.40;;;;;;4852334;54;21383;-28
2021/11/30 11:14:49;;;;;;;96.53;77.97;;;23.00;44.70;;;;;;4799667;54;21584;-32
2021/11/30 11:19:50;;;;;;;97.05;78.95;;;23.00;44.70;;;;;;4810313;54;21104;-30
2021/11/30 11:24:55;;;;;;;94.87;77.25;;;23.00;44.70;;;;;;4825111;54;21548;-34
2021/11/30 11:29:57;;;;;;;96.35;77.37;;;23.00;44.80;;;;;;4812199;54;20995;-30
2021/11/30 11:34:59;;;;;;;91.07;73.28;;;23.00;45.00;;;;;;4814430;54;21031;-29
2021/11/30 11:40:00;;;;;;;96.50;78.85;;;23.00;45.60;;;;;;4811556;54;21527;-35
2021/11/30 11:45:00;;;;;;;93.93;80.32;;;23.10;45.70;;;;;;4752081;55;21076;-28
2021/11/30 11:50:12;;;;;;;109.53;88.82;;;23.00;45.30;;;;;;4757159;55;21065;-31
2021/11/30 11:55:22;;;;;;;102.93;83.10;;;23.10;45.30;;;;;;4787296;55;21077;-33
2021/11/30 12:00:26;;;;;;;112.05;87.82;;;23.10;45.30;;;;;;4773375;54;21575;-27
2021/11/30 12:07:01;;;;;;;106.07;86.85;;;23.10;45.50;;;;;;4759094;55;21515;-31
2021/11/30 12:12:22;;;;;;;109.13;87.07;;;23.20;47.30;;;;;;4772471;55;21562;-27
2021/11/30 12:17:30;;;;;;;104.85;85.18;;;23.30;45.50;;;;;;4751889;55;21049;-27
2021/11/30 12:22:52;;;;;;;110.72;90.53;;;23.40;45.50;;;;;;4782691;55;21114;-32
2021/11/30 12:27:55;;;;;;;111.70;85.53;;;23.40;45.20;;;;;;4748870;55;21049;-32
2021/11/30 12:32:55;;;;;;;104.12;85.82;;;23.50;45.20;;;;;;4762389;55;21025;-26
2021/11/30 12:38:20;;;;;;;103.90;86.18;;;23.50;45.10;;;;;;4757472;55;21010;-29
2021/11/30 12:43:24;;;;;;;103.43;84.20;;;23.60;45.00;;;;;;4757173;55;21526;-28
2021/11/30 12:48:35;;;;;;;104.87;84.70;;;23.70;45.10;;;;;;4748892;55;21566;-24
2021/11/30 12:53:44;;;;;;;102.57;85.95;;;23.70;45.70;;;;;;4750465;55;21081;-28
2021/11/30 12:58:49;;;;;;;100.60;82.18;;;23.70;45.20;;;;;;4747245;55;21014;-25
2021/11/30 13:04:29;;;;;;;102.78;83.65;;;23.70;45.40;;;;;;4752230;55;21021;-26
2021/11/30 13:09:41;;;;;;;97.93;83.57;;;23.70;45.50;;;;;;4754888;55;21013;-28
2021/11/30 13:14:43;;;;;;;104.05;84.68;;;23.70;45.70;;;;;;4752951;55;20992;-24
2021/11/30 13:19:47;;;;;;;98.53;82.05;;;23.70;45.80;;;;;;4750417;55;21081;-27
2021/11/30 13:24:51;;;;;;;100.68;83.00;;;23.70;46.00;;;;;;4740321;58;21541;-29
2021/11/30 13:30:10;;;;;;;102.28;83.53;;;23.70;46.10;;;;;;4775917;55;21136;-27
2021/11/30 13:35:29;;;;;;;99.37;82.82;;;23.70;46.30;;;;;;4740439;58;21555;-26
2021/11/30 13:40:51;;;;;;;102.50;84.82;;;23.70;46.40;;;;;;4745965;55;21116;-26
2021/11/30 13:46:06;;;;;;;103.95;85.00;;;23.70;46.70;;;;;;4764990;55;21566;-27
2021/11/30 13:51:13;;;;;;;104.12;82.57;;;23.70;46.00;;;;;;4795529;55;21033;-27
2021/11/30 13:56:43;;;;;;;107.07;84.87;;;23.60;45.90;;;;;;4742668;55;21037;-29
2021/11/30 14:01:48;;;;;;;100.30;82.30;;;23.60;45.90;;;;;;4760507;55;21575;-29
2021/11/30 14:06:57;;;;;;;102.40;83.43;;;23.50;45.80;;;;;;4820769;55;21012;-28
2021/11/30 14:12:10;;;;;;;98.57;80.50;;;23.50;45.80;;;;;;4743759;55;21025;-28
2021/11/30 14:17:27;;;;;;;104.93;82.43;;;23.50;45.60;;;;;;4740672;58;21463;-28
2021/11/30 14:22:39;;;;;;;103.93;82.70;;;23.50;45.60;;;;;;4746353;55;21518;-25
2021/11/30 14:31:21;;;;;;;103.12;82.82;;;23.50;45.70;;;;;;4789235;54;28000;-30
2021/11/30 14:36:23;;;;;;;104.63;83.75;;;23.50;45.60;;;;;;4745141;54;21049;-31
2021/11/30 14:41:32;;;;;;;104.95;83.82;;;23.50;45.80;;;;;;4784593;55;21560;-28
2021/11/30 14:46:33;;;;;;;105.07;84.22;;;23.50;45.80;;;;;;4821913;54;21362;-26
2021/11/30 14:51:34;;;;;;;99.45;83.15;;;23.50;45.90;;;;;;4836977;54;21063;-25
2021/11/30 14:56:42;;;;;;;102.10;84.15;;;23.40;45.90;;;;;;4806421;54;21513;-27
2021/11/30 15:01:53;;;;;;;102.85;85.40;;;23.30;45.50;;;;;;4809995;54;21509;-32
2021/11/30 15:06:54;;;;;;;104.70;85.40;;;23.20;45.80;;;;;;4834349;54;21532;-29
2021/11/30 15:12:03;;;;;;;104.25;84.97;;;23.20;45.60;;;;;;4821599;54;21003;-28
2021/11/30 15:17:10;;;;;;;106.85;84.65;;;23.10;45.60;;;;;;4808567;54;21450;-25
2021/11/30 15:22:35;;;;;;;;;;;23.10;45.80;;;;;;4799891;58;21011;-24
2021/11/30 15:27:40;;;;;;;107.30;85.53;;;23.10;46.00;;;;;;4797363;55;20339;-30
2021/11/30 15:32:41;;;;;;;104.20;85.40;;;23.10;45.90;;;;;;4805725;54;21469;-29
2021/11/30 15:37:42;;;;;;;104.63;84.93;;;23.00;45.90;;;;;;4821962;54;21130;-27
2021/11/30 15:42:42;;;;;;;105.85;86.40;;;23.00;46.00;;;;;;4803742;54;21031;-30
2021/11/30 15:47:43;;;;;;;105.93;86.32;;;23.00;46.00;;;;;;4794602;58;21078;-27
2021/11/30 15:52:44;;;;;;;109.22;87.80;;;23.00;46.00;;;;;;4807621;54;21095;-23
2021/11/30 15:57:45;;;;;;;105.60;86.35;;;23.00;46.00;;;;;;4839693;54;21079;-31
2021/11/30 16:02:46;;;;;;;107.68;86.78;;;22.90;46.00;;;;;;4794602;55;21485;-32
2021/11/30 16:07:47;;;;;;;103.35;85.65;;;22.90;46.00;;;;;;4834527;54;21019;-32
2021/11/30 16:12:48;;;;;;;107.60;87.25;;;22.80;46.00;;;;;;4805008;54;21064;-28
2021/11/30 16:17:49;;;;;;;107.40;86.57;;;22.80;45.90;;;;;;4805603;54;21008;-32
2021/11/30 16:22:51;;;;;;;103.15;86.35;;;22.80;45.90;;;;;;4796403;54;21532;-26
2021/11/30 16:27:52;;;;;;;103.78;85.45;;;22.70;45.80;;;;;;4807075;54;21052;-29
2021/11/30 16:32:53;;;;;;;107.87;90.50;;;22.70;45.80;;;;;;4830950;54;21020;-30
2021/11/30 16:37:56;;;;;;;112.18;88.75;;;22.70;45.70;;;;;;4822657;54;21016;-26
2021/11/30 16:42:57;;;;;;;112.18;92.20;;;22.70;45.70;;;;;;4808634;54;21632;-29
2021/11/30 16:47:58;;;;;;;110.25;91.57;;;22.60;45.60;;;;;;4796592;54;21118;-30
2021/11/30 16:52:59;;;;;;;111.05;92.85;;;22.60;45.60;;;;;;4801121;54;21028;-31
2021/11/30 16:58:00;;;;;;;111.12;91.93;;;22.60;46.10;;;;;;4801090;54;21545;-26
2021/11/30 17:03:02;;;;;;;114.70;94.03;;;22.50;45.50;;;;;;4797578;54;21019;-25
2021/11/30 17:08:03;;;;;;;117.45;93.05;;;22.50;45.40;;;;;;4827721;54;21498;-28
2021/11/30 17:13:05;;;;;;;113.20;93.43;;;22.50;45.40;;;;;;4820914;54;21164;-26
2021/11/30 17:18:06;;;;;;;118.95;98.68;;;22.50;45.40;;;;;;4830298;54;21051;-22
2021/11/30 17:23:12;;;;;;;121.47;100.47;;;22.50;45.30;;;;;;4802158;54;21068;-23
2021/11/30 17:28:13;;;;;;;118.32;98.90;;;22.40;45.20;;;;;;4821830;54;22380;-28
2021/11/30 17:33:14;;;;;;;123.10;101.53;;;22.40;45.20;;;;;;4794645;58;21068;-30
2021/11/30 17:38:15;;;;;;;117.65;99.50;;;22.40;45.10;;;;;;4796872;54;21003;-28
2021/11/30 17:43:16;;;;;;;126.85;105.50;;;22.40;45.10;;;;;;4796244;54;21048;-28
2021/11/30 17:48:17;;;;;;;126.80;106.10;;;22.40;45.20;;;;;;4803013;54;21502;-28
2021/11/30 17:53:18;;;;;;;128.05;104.18;;;22.40;45.00;;;;;;4794777;58;21016;-26
2021/11/30 17:58:21;;;;;;;135.00;109.57;;;22.40;45.00;;;;;;4807733;54;21012;-29
2021/11/30 18:03:23;;;;;;;132.73;109.47;;;22.30;44.90;;;;;;4795036;58;21169;-28
2021/11/30 18:08:24;;;;;;;139.05;110.20;;;22.30;44.90;;;;;;4795218;58;21083;-29
2021/11/30 18:13:28;;;;;;;132.18;109.40;;;22.30;44.80;;;;;;4813907;54;21028;-29
2021/11/30 18:18:29;;;;;;;136.82;113.03;;;22.30;44.90;;;;;;4815479;54;20992;-30
2021/11/30 18:23:30;;;;;;;137.60;112.53;;;22.30;44.80;;;;;;4805376;54;21020;-29
2021/11/30 18:28:35;;;;;;;136.75;112.25;;;22.30;44.80;;;;;;4817795;54;21123;-21
2021/11/30 18:33:36;;;;;;;136.77;111.40;;;22.30;44.70;;;;;;4797159;54;21497;-27
2021/11/30 18:38:37;;;;;;;139.62;113.97;;;22.30;44.70;;;;;;4809372;54;21036;-28
2021/11/30 18:43:39;;;;;;;141.50;115.07;;;22.30;44.70;;;;;;4807739;54;21107;-21
2021/11/30 18:48:39;;;;;;;142.25;115.32;;;22.30;44.60;;;;;;4827944;54;21098;-31
2021/11/30 18:53:40;;;;;;;133.87;111.45;;;22.20;44.50;;;;;;4810161;54;21122;-31
2021/11/30 18:58:42;;;;;;;145.62;118.47;;;22.20;44.50;;;;;;4813121;54;21136;-28
2021/11/30 19:03:43;;;;;;;144.13;117.97;;;22.20;44.50;;;;;;4807082;54;21161;-28
2021/11/30 19:08:44;;;;;;;142.80;117.80;;;22.20;44.50;;;;;;4835512;54;21138;-27
2021/11/30 19:13:45;;;;;;;144.23;119.78;;;22.20;44.50;;;;;;4798325;54;21103;-28
2021/11/30 19:18:46;;;;;;;147.85;120.85;;;22.20;44.40;;;;;;4871963;54;21036;-23
2021/11/30 19:23:47;;;;;;;144.82;119.93;;;22.20;44.40;;;;;;4845615;54;21489;-28
2021/11/30 19:28:48;;;;;;;145.95;120.18;;;22.20;44.30;;;;;;4821367;54;22315;-30
2021/11/30 19:33:51;;;;;;;141.65;117.53;;;22.20;44.30;;;;;;4804539;54;21094;-28
2021/11/30 19:38:53;;;;;;;150.25;122.05;;;22.20;44.30;;;;;;4796098;54;21485;-28
2021/11/30 19:43:54;;;;;;;151.37;120.60;;;22.20;44.30;;;;;;4810673;54;21617;-28
2021/11/30 19:48:56;;;;;;;149.98;122.13;;;22.20;44.20;;;;;;4798111;54;20999;-27
2021/11/30 19:53:58;;;;;;;150.00;122.32;;;22.20;44.20;;;;;;4804027;54;20996;-28
2021/11/30 19:58:59;;;;;;;154.80;123.13;;;22.10;44.10;;;;;;4795343;54;21007;-29
2021/11/30 20:09:19;;;;;;;153.00;124.03;;;22.10;44.10;;;;;;4824034;54;21087;-31
2021/11/30 20:14:20;;;;;;;152.40;123.57;;;22.10;44.20;;;;;;4805023;54;21072;-28
2021/11/30 20:19:21;;;;;;;148.77;122.43;;;22.10;44.10;;;;;;4829340;54;21039;-24
2021/11/30 20:24:21;;;;;;;146.18;121.28;;;22.10;44.10;;;;;;4805984;54;21015;-30
2021/11/30 20:29:27;;;;;;;147.70;121.28;;;22.10;44.00;;;;;;4799690;54;21012;-27
2021/11/30 20:34:30;;;;;;;147.70;117.95;;;22.10;44.00;;;;;;4823940;54;22129;-28
2021/11/30 20:39:31;;;;;;;149.62;121.60;;;22.10;44.00;;;;;;4826420;54;21044;-30
2021/11/30 20:44:32;;;;;;;153.50;123.78;;;22.10;43.90;;;;;;4796156;54;21055;-31
2021/11/30 20:49:33;;;;;;;148.95;121.32;;;22.10;43.90;;;;;;4860743;54;21012;-26
2021/11/30 20:54:34;;;;;;;151.73;120.18;;;22.10;43.90;;;;;;4822759;54;21509;-28
2021/11/30 20:59:35;;;;;;;142.37;116.88;;;22.00;43.80;;;;;;4795597;58;21118;-26
2021/11/30 21:04:40;;;;;;;153.62;122.35;;;22.10;43.80;;;;;;4794833;58;21035;-25
2021/11/30 21:09:41;;;;;;;146.02;120.18;;;22.00;43.80;;;;;;4817995;54;21462;-25
2021/11/30 21:14:41;;;;;;;144.00;118.30;;;22.10;43.90;;;;;;4794763;58;21067;-29
2021/11/30 21:19:43;;;;;;;152.73;124.22;;;22.00;43.70;;;;;;4850050;54;21003;-29
2021/11/30 21:24:44;;;;;;;150.93;122.00;;;22.00;43.80;;;;;;4808756;54;21015;-30
2021/11/30 21:29:45;;;;;;;147.62;119.47;;;22.00;43.70;;;;;;4797185;54;21032;-28
2021/11/30 21:34:49;;;;;;;143.25;113.47;;;22.00;43.70;;;;;;4811075;54;21004;-28
2021/11/30 21:39:50;;;;;;;151.07;120.65;;;22.00;43.70;;;;;;4814596;54;21028;-27
2021/11/30 21:44:51;;;;;;;145.30;118.40;;;22.00;43.60;;;;;;4795366;58;21059;-25
2021/11/30 21:49:54;;;;;;;145.52;117.18;;;22.00;43.60;;;;;;4796822;54;21051;-28
2021/11/30 21:54:55;;;;;;;144.35;116.20;;;22.00;43.60;;;;;;4854196;54;21997;-32
2021/11/30 21:59:57;;;;;;;143.25;117.55;;;22.00;43.60;;;;;;4812935;54;21028;-26
2021/11/30 22:05:01;;;;;;;142.02;114.90;;;22.00;43.60;;;;;;4795455;54;21573;-31
2021/11/30 22:10:04;;;;;;;146.10;117.03;;;22.00;43.60;;;;;;4848773;54;21470;-30
2021/11/30 22:15:07;;;;;;;143.25;117.20;;;21.90;43.50;;;;;;4801741;54;21031;-31
2021/11/30 22:20:15;;;;;;;141.37;111.93;;;22.00;43.50;;;;;;4800595;54;21091;-22
2021/11/30 22:25:18;;;;;;;140.05;112.72;;;21.90;43.50;;;;;;4817555;54;20995;-26
2021/11/30 22:30:19;;;;;;;138.15;112.97;;;21.90;43.40;;;;;;4792528;58;22074;-29
2021/11/30 22:35:21;;;;;;;140.65;113.57;;;21.90;43.40;;;;;;4811326;54;21031;-31
2021/11/30 22:40:23;;;;;;;135.43;110.82;;;21.90;43.40;;;;;;4811031;54;21486;-31
2021/11/30 22:45:26;;;;;;;137.18;111.32;;;21.90;43.40;;;;;;4802650;54;21489;-30
2021/11/30 22:50:27;;;;;;;130.68;106.40;;;21.90;43.30;;;;;;4793959;58;21493;-27
2021/11/30 22:55:29;;;;;;;136.20;110.10;;;21.90;43.30;;;;;;4809612;54;21044;-27
2021/11/30 23:00:42;;;;;;;137.62;111.88;;;21.90;43.30;;;;;;4808101;54;21457;-29
2021/11/30 23:05:43;;;;;;;136.90;108.07;;;21.90;43.20;;;;;;4800231;54;21063;-28
2021/11/30 23:10:45;;;;;;;136.30;109.37;;;21.90;43.20;;;;;;4864220;54;21968;-29
2021/11/30 23:15:46;;;;;;;136.95;111.55;;;21.90;43.10;;;;;;4794903;58;21019;-28
2021/11/30 23:20:50;;;;;;;136.68;109.55;;;21.90;43.10;;;;;;4812690;54;21020;-30
2021/11/30 23:25:53;;;;;;;134.87;109.75;;;21.90;43.10;;;;;;4858785;54;21473;-30
2021/11/30 23:30:58;;;;;;;134.43;108.63;;;21.90;43.10;;;;;;4858527;54;21616;-28
2021/11/30 23:36:00;;;;;;;133.75;106.47;;;21.90;43.00;;;;;;4810280;54;21168;-27
2021/11/30 23:41:06;;;;;;;132.00;106.03;;;21.90;43.00;;;;;;4847657;54;21024;-26
2021/11/30 23:46:07;;;;;;;133.70;105.20;;;21.90;43.00;;;;;;4808429;54;21047;-30
2021/11/30 23:51:09;;;;;;;129.70;103.95;;;21.90;43.00;;;;;;4794434;58;21540;-26
2021/11/30 23:56:11;;;;;;;132.93;107.45;;;21.90;43.00;;;;;;4837832;54;21054;-21
